sensor_id;sensor_type;location;lat;lon;timestamp;temperature;humidity
72905;DHT22;61048;52.162;4.516;2022-10-31T00:01:46;18.90;69.40
72905;DHT22;61048;52.162;4.516;2022-10-31T00:04:13;18.90;69.40
72905;DHT22;61048;52.162;4.516;2022-10-31T00:06:40;18.90;69.50
72905;DHT22;61048;52.162;4.516;2022-10-31T00:09:06;18.90;69.50
72905;DHT22;61048;52.162;4.516;2022-10-31T00:11:33;18.90;69.50
72905;DHT22;61048;52.162;4.516;2022-10-31T00:14:02;18.90;69.60
72905;DHT22;61048;52.162;4.516;2022-10-31T00:16:29;18.90;69.60
72905;DHT22;61048;52.162;4.516;2022-10-31T00:18:57;18.90;69.60
72905;DHT22;61048;52.162;4.516;2022-10-31T00:21:25;18.90;69.60
72905;DHT22;61048;52.162;4.516;2022-10-31T00:23:52;18.90;69.70
72905;DHT22;61048;52.162;4.516;2022-10-31T00:26:19;18.80;69.70
72905;DHT22;61048;52.162;4.516;2022-10-31T00:28:46;18.80;69.70
72905;DHT22;61048;52.162;4.516;2022-10-31T00:31:14;18.80;69.90
72905;DHT22;61048;52.162;4.516;2022-10-31T00:33:42;18.80;69.80
72905;DHT22;61048;52.162;4.516;2022-10-31T00:36:11;18.80;70.00
72905;DHT22;61048;52.162;4.516;2022-10-31T00:38:38;18.80;69.90
72905;DHT22;61048;52.162;4.516;2022-10-31T00:41:05;18.80;70.00
72905;DHT22;61048;52.162;4.516;2022-10-31T00:43:32;18.80;70.00
72905;DHT22;61048;52.162;4.516;2022-10-31T00:45:59;18.80;70.20
72905;DHT22;61048;52.162;4.516;2022-10-31T00:48:27;18.80;70.20
72905;DHT22;61048;52.162;4.516;2022-10-31T00:50:54;18.80;70.10
72905;DHT22;61048;52.162;4.516;2022-10-31T00:53:21;18.80;70.20
72905;DHT22;61048;52.162;4.516;2022-10-31T00:55:48;18.80;70.20
72905;DHT22;61048;52.162;4.516;2022-10-31T00:58:15;18.80;70.30
72905;DHT22;61048;52.162;4.516;2022-10-31T01:00:42;18.80;70.30
72905;DHT22;61048;52.162;4.516;2022-10-31T01:03:09;18.80;70.40
72905;DHT22;61048;52.162;4.516;2022-10-31T01:05:37;18.80;70.30
72905;DHT22;61048;52.162;4.516;2022-10-31T01:08:04;18.80;70.50
72905;DHT22;61048;52.162;4.516;2022-10-31T01:10:31;18.80;70.40
72905;DHT22;61048;52.162;4.516;2022-10-31T01:12:58;18.80;70.50
72905;DHT22;61048;52.162;4.516;2022-10-31T01:15:24;18.80;70.40
72905;DHT22;61048;52.162;4.516;2022-10-31T01:17:51;18.80;70.40
72905;DHT22;61048;52.162;4.516;2022-10-31T01:20:18;18.80;70.50
72905;DHT22;61048;52.162;4.516;2022-10-31T01:22:46;18.80;70.50
72905;DHT22;61048;52.162;4.516;2022-10-31T01:25:13;18.80;70.60
72905;DHT22;61048;52.162;4.516;2022-10-31T01:27:40;18.80;70.70
72905;DHT22;61048;52.162;4.516;2022-10-31T01:30:08;18.80;70.50
72905;DHT22;61048;52.162;4.516;2022-10-31T01:32:35;18.80;70.70
72905;DHT22;61048;52.162;4.516;2022-10-31T01:35:02;18.70;70.50
72905;DHT22;61048;52.162;4.516;2022-10-31T01:37:30;18.80;70.70
72905;DHT22;61048;52.162;4.516;2022-10-31T01:39:58;18.70;70.80
72905;DHT22;61048;52.162;4.516;2022-10-31T01:42:25;18.70;70.70
72905;DHT22;61048;52.162;4.516;2022-10-31T01:44:58;18.70;70.60
72905;DHT22;61048;52.162;4.516;2022-10-31T01:47:32;18.70;70.60
72905;DHT22;61048;52.162;4.516;2022-10-31T01:50:02;18.70;70.60
72905;DHT22;61048;52.162;4.516;2022-10-31T01:52:32;18.70;70.80
72905;DHT22;61048;52.162;4.516;2022-10-31T01:55:06;18.70;70.90
72905;DHT22;61048;52.162;4.516;2022-10-31T01:57:35;18.70;70.80
72905;DHT22;61048;52.162;4.516;2022-10-31T02:00:07;18.70;70.70
72905;DHT22;61048;52.162;4.516;2022-10-31T02:02:34;18.70;70.80
72905;DHT22;61048;52.162;4.516;2022-10-31T02:05:04;18.70;70.80
72905;DHT22;61048;52.162;4.516;2022-10-31T02:07:38;18.70;70.60
72905;DHT22;61048;52.162;4.516;2022-10-31T02:10:07;18.70;70.80
72905;DHT22;61048;52.162;4.516;2022-10-31T02:12:35;18.70;70.70
72905;DHT22;61048;52.162;4.516;2022-10-31T02:15:04;18.70;70.70
72905;DHT22;61048;52.162;4.516;2022-10-31T02:17:32;18.70;70.60
72905;DHT22;61048;52.162;4.516;2022-10-31T02:20:08;18.70;70.80
72905;DHT22;61048;52.162;4.516;2022-10-31T02:22:45;18.70;70.80
72905;DHT22;61048;52.162;4.516;2022-10-31T02:25:46;18.70;71.00
72905;DHT22;61048;52.162;4.516;2022-10-31T02:28:34;18.70;70.80
72905;DHT22;61048;52.162;4.516;2022-10-31T02:31:19;18.70;71.00
72905;DHT22;61048;52.162;4.516;2022-10-31T02:33:51;18.60;70.90
72905;DHT22;61048;52.162;4.516;2022-10-31T02:36:24;18.60;70.80
72905;DHT22;61048;52.162;4.516;2022-10-31T02:38:59;18.60;71.10
72905;DHT22;61048;52.162;4.516;2022-10-31T02:41:32;18.60;71.00
72905;DHT22;61048;52.162;4.516;2022-10-31T02:44:08;18.60;70.90
72905;DHT22;61048;52.162;4.516;2022-10-31T02:46:40;18.60;71.00
72905;DHT22;61048;52.162;4.516;2022-10-31T02:49:14;18.60;71.10
72905;DHT22;61048;52.162;4.516;2022-10-31T02:51:43;18.60;70.90
72905;DHT22;61048;52.162;4.516;2022-10-31T02:54:18;18.60;70.80
72905;DHT22;61048;52.162;4.516;2022-10-31T02:56:46;18.60;70.80
72905;DHT22;61048;52.162;4.516;2022-10-31T02:59:14;18.60;70.70
72905;DHT22;61048;52.162;4.516;2022-10-31T03:02:11;18.60;70.90
72905;DHT22;61048;52.162;4.516;2022-10-31T03:05:03;18.60;70.80
72905;DHT22;61048;52.162;4.516;2022-10-31T03:07:39;18.60;71.00
72905;DHT22;61048;52.162;4.516;2022-10-31T03:10:14;18.60;71.10
72905;DHT22;61048;52.162;4.516;2022-10-31T03:12:49;18.60;71.00
72905;DHT22;61048;52.162;4.516;2022-10-31T03:15:24;18.50;70.90
72905;DHT22;61048;52.162;4.516;2022-10-31T03:17:56;18.60;71.00
72905;DHT22;61048;52.162;4.516;2022-10-31T03:20:28;18.50;70.80
72905;DHT22;61048;52.162;4.516;2022-10-31T03:22:57;18.50;70.90
72905;DHT22;61048;52.162;4.516;2022-10-31T03:25:25;18.50;70.80
72905;DHT22;61048;52.162;4.516;2022-10-31T03:27:52;18.50;70.80
72905;DHT22;61048;52.162;4.516;2022-10-31T03:30:20;18.50;70.90
72905;DHT22;61048;52.162;4.516;2022-10-31T03:32:50;18.50;70.80
72905;DHT22;61048;52.162;4.516;2022-10-31T03:35:21;18.50;71.10
72905;DHT22;61048;52.162;4.516;2022-10-31T03:37:49;18.50;71.10
72905;DHT22;61048;52.162;4.516;2022-10-31T03:40:20;18.50;70.80
72905;DHT22;61048;52.162;4.516;2022-10-31T03:42:53;18.50;71.10
72905;DHT22;61048;52.162;4.516;2022-10-31T03:45:23;18.50;70.70
72905;DHT22;61048;52.162;4.516;2022-10-31T03:47:51;18.50;70.80
72905;DHT22;61048;52.162;4.516;2022-10-31T03:50:22;18.50;71.00
72905;DHT22;61048;52.162;4.516;2022-10-31T03:52:54;18.50;71.00
72905;DHT22;61048;52.162;4.516;2022-10-31T03:55:25;18.50;71.00
72905;DHT22;61048;52.162;4.516;2022-10-31T03:57:58;18.50;70.80
72905;DHT22;61048;52.162;4.516;2022-10-31T04:00:26;18.50;70.90
72905;DHT22;61048;52.162;4.516;2022-10-31T04:02:57;18.50;70.80
72905;DHT22;61048;52.162;4.516;2022-10-31T04:05:27;18.50;71.10
72905;DHT22;61048;52.162;4.516;2022-10-31T04:07:56;18.40;70.80
72905;DHT22;61048;52.162;4.516;2022-10-31T04:10:25;18.40;70.90
72905;DHT22;61048;52.162;4.516;2022-10-31T04:12:57;18.40;70.80
72905;DHT22;61048;52.162;4.516;2022-10-31T04:15:25;18.40;70.80
72905;DHT22;61048;52.162;4.516;2022-10-31T04:17:56;18.40;70.70
72905;DHT22;61048;52.162;4.516;2022-10-31T04:20:32;18.40;70.60
72905;DHT22;61048;52.162;4.516;2022-10-31T04:23:00;18.40;70.70
72905;DHT22;61048;52.162;4.516;2022-10-31T04:25:27;18.40;71.00
72905;DHT22;61048;52.162;4.516;2022-10-31T04:27:53;18.40;71.10
72905;DHT22;61048;52.162;4.516;2022-10-31T04:30:21;18.40;71.10
72905;DHT22;61048;52.162;4.516;2022-10-31T04:32:47;18.40;71.30
72905;DHT22;61048;52.162;4.516;2022-10-31T04:35:14;18.40;71.20
72905;DHT22;61048;52.162;4.516;2022-10-31T04:37:42;18.40;71.20
72905;DHT22;61048;52.162;4.516;2022-10-31T04:40:10;18.40;71.00
72905;DHT22;61048;52.162;4.516;2022-10-31T04:42:37;18.40;71.20
72905;DHT22;61048;52.162;4.516;2022-10-31T04:45:05;18.40;70.90
72905;DHT22;61048;52.162;4.516;2022-10-31T04:47:32;18.40;70.90
72905;DHT22;61048;52.162;4.516;2022-10-31T04:49:59;18.40;71.00
72905;DHT22;61048;52.162;4.516;2022-10-31T04:52:26;18.40;71.00
72905;DHT22;61048;52.162;4.516;2022-10-31T04:54:54;18.40;70.90
72905;DHT22;61048;52.162;4.516;2022-10-31T04:57:21;18.30;70.80
72905;DHT22;61048;52.162;4.516;2022-10-31T04:59:48;18.30;70.70
72905;DHT22;61048;52.162;4.516;2022-10-31T05:02:15;18.30;70.70
72905;DHT22;61048;52.162;4.516;2022-10-31T05:04:41;18.30;70.70
72905;DHT22;61048;52.162;4.516;2022-10-31T05:07:08;18.30;71.00
72905;DHT22;61048;52.162;4.516;2022-10-31T05:09:35;18.30;70.90
72905;DHT22;61048;52.162;4.516;2022-10-31T05:12:03;18.40;71.20
72905;DHT22;61048;52.162;4.516;2022-10-31T05:14:30;18.40;71.00
72905;DHT22;61048;52.162;4.516;2022-10-31T05:16:57;18.30;71.00
72905;DHT22;61048;52.162;4.516;2022-10-31T05:19:24;18.30;71.10
72905;DHT22;61048;52.162;4.516;2022-10-31T05:21:51;18.30;71.00
72905;DHT22;61048;52.162;4.516;2022-10-31T05:24:17;18.30;70.80
72905;DHT22;61048;52.162;4.516;2022-10-31T05:26:47;18.30;70.70
72905;DHT22;61048;52.162;4.516;2022-10-31T05:29:15;18.30;70.60
72905;DHT22;61048;52.162;4.516;2022-10-31T05:31:42;18.20;70.20
72905;DHT22;61048;52.162;4.516;2022-10-31T05:34:09;18.20;70.10
72905;DHT22;61048;52.162;4.516;2022-10-31T05:36:35;18.20;70.00
72905;DHT22;61048;52.162;4.516;2022-10-31T05:39:02;18.20;69.90
72905;DHT22;61048;52.162;4.516;2022-10-31T05:41:29;18.20;69.80
72905;DHT22;61048;52.162;4.516;2022-10-31T05:43:56;18.20;69.80
72905;DHT22;61048;52.162;4.516;2022-10-31T05:46:24;18.20;70.10
72905;DHT22;61048;52.162;4.516;2022-10-31T05:48:51;18.20;71.10
72905;DHT22;61048;52.162;4.516;2022-10-31T05:51:18;18.30;72.60
72905;DHT22;61048;52.162;4.516;2022-10-31T05:53:46;18.30;72.20
72905;DHT22;61048;52.162;4.516;2022-10-31T05:56:13;18.30;72.30
72905;DHT22;61048;52.162;4.516;2022-10-31T05:58:40;18.30;72.20
72905;DHT22;61048;52.162;4.516;2022-10-31T06:01:06;18.30;72.50
72905;DHT22;61048;52.162;4.516;2022-10-31T06:03:34;18.30;72.30
72905;DHT22;61048;52.162;4.516;2022-10-31T06:06:01;18.30;72.10
72905;DHT22;61048;52.162;4.516;2022-10-31T06:08:28;18.30;72.40
72905;DHT22;61048;52.162;4.516;2022-10-31T06:10:55;18.30;72.20
72905;DHT22;61048;52.162;4.516;2022-10-31T06:13:23;18.30;72.10
72905;DHT22;61048;52.162;4.516;2022-10-31T06:15:49;18.30;72.50
72905;DHT22;61048;52.162;4.516;2022-10-31T06:18:16;18.30;72.10
72905;DHT22;61048;52.162;4.516;2022-10-31T06:20:44;18.30;72.80
72905;DHT22;61048;52.162;4.516;2022-10-31T06:23:11;18.30;72.70
72905;DHT22;61048;52.162;4.516;2022-10-31T06:25:38;18.30;72.10
72905;DHT22;61048;52.162;4.516;2022-10-31T06:28:05;18.30;72.20
72905;DHT22;61048;52.162;4.516;2022-10-31T06:30:32;18.20;71.50
72905;DHT22;61048;52.162;4.516;2022-10-31T06:33:02;18.20;71.40
72905;DHT22;61048;52.162;4.516;2022-10-31T06:35:30;18.20;71.20
72905;DHT22;61048;52.162;4.516;2022-10-31T06:37:58;18.20;71.10
72905;DHT22;61048;52.162;4.516;2022-10-31T06:40:25;18.20;71.80
72905;DHT22;61048;52.162;4.516;2022-10-31T06:42:59;18.20;72.40
72905;DHT22;61048;52.162;4.516;2022-10-31T06:45:26;18.20;72.70
72905;DHT22;61048;52.162;4.516;2022-10-31T06:47:54;18.20;72.30
72905;DHT22;61048;52.162;4.516;2022-10-31T06:50:22;18.20;72.10
72905;DHT22;61048;52.162;4.516;2022-10-31T06:52:52;18.20;72.20
72905;DHT22;61048;52.162;4.516;2022-10-31T06:55:21;18.20;72.60
72905;DHT22;61048;52.162;4.516;2022-10-31T06:57:52;18.20;72.50
72905;DHT22;61048;52.162;4.516;2022-10-31T07:00:20;18.20;72.90
72905;DHT22;61048;52.162;4.516;2022-10-31T07:02:53;18.20;72.80
72905;DHT22;61048;52.162;4.516;2022-10-31T07:05:20;18.20;72.60
72905;DHT22;61048;52.162;4.516;2022-10-31T07:07:51;18.20;72.70
72905;DHT22;61048;52.162;4.516;2022-10-31T07:10:18;18.20;72.60
72905;DHT22;61048;52.162;4.516;2022-10-31T07:12:46;18.20;72.50
72905;DHT22;61048;52.162;4.516;2022-10-31T07:15:13;18.20;72.50
72905;DHT22;61048;52.162;4.516;2022-10-31T07:17:40;18.20;72.50
72905;DHT22;61048;52.162;4.516;2022-10-31T07:20:08;18.20;73.50
72905;DHT22;61048;52.162;4.516;2022-10-31T07:22:36;18.30;74.00
72905;DHT22;61048;52.162;4.516;2022-10-31T07:25:04;18.30;74.20
72905;DHT22;61048;52.162;4.516;2022-10-31T07:27:35;18.30;74.50
72905;DHT22;61048;52.162;4.516;2022-10-31T07:30:06;18.30;74.50
72905;DHT22;61048;52.162;4.516;2022-10-31T07:32:40;18.40;74.30
72905;DHT22;61048;52.162;4.516;2022-10-31T07:35:08;18.40;73.80
72905;DHT22;61048;52.162;4.516;2022-10-31T07:37:35;18.40;73.40
72905;DHT22;61048;52.162;4.516;2022-10-31T07:40:03;18.40;73.40
72905;DHT22;61048;52.162;4.516;2022-10-31T07:42:34;18.40;73.20
72905;DHT22;61048;52.162;4.516;2022-10-31T07:45:01;18.40;72.50
72905;DHT22;61048;52.162;4.516;2022-10-31T07:47:29;18.40;72.50
72905;DHT22;61048;52.162;4.516;2022-10-31T07:49:56;18.30;72.50
72905;DHT22;61048;52.162;4.516;2022-10-31T07:52:23;18.30;72.40
72905;DHT22;61048;52.162;4.516;2022-10-31T07:54:50;18.30;72.20
72905;DHT22;61048;52.162;4.516;2022-10-31T07:57:17;18.30;72.00
72905;DHT22;61048;52.162;4.516;2022-10-31T07:59:44;18.30;71.80
72905;DHT22;61048;52.162;4.516;2022-10-31T08:02:11;18.30;71.80
72905;DHT22;61048;52.162;4.516;2022-10-31T08:04:39;18.30;71.70
72905;DHT22;61048;52.162;4.516;2022-10-31T08:07:06;18.30;71.70
72905;DHT22;61048;52.162;4.516;2022-10-31T08:09:33;18.30;71.50
72905;DHT22;61048;52.162;4.516;2022-10-31T08:11:59;18.30;71.30
72905;DHT22;61048;52.162;4.516;2022-10-31T08:14:27;18.30;71.20
72905;DHT22;61048;52.162;4.516;2022-10-31T08:16:54;18.20;71.20
72905;DHT22;61048;52.162;4.516;2022-10-31T08:19:21;18.20;71.30
72905;DHT22;61048;52.162;4.516;2022-10-31T08:21:51;18.30;71.10
72905;DHT22;61048;52.162;4.516;2022-10-31T08:24:20;18.20;70.90
72905;DHT22;61048;52.162;4.516;2022-10-31T08:26:47;18.20;71.00
72905;DHT22;61048;52.162;4.516;2022-10-31T08:29:14;18.30;70.90
72905;DHT22;61048;52.162;4.516;2022-10-31T08:31:41;18.20;70.60
72905;DHT22;61048;52.162;4.516;2022-10-31T08:34:08;18.20;70.70
72905;DHT22;61048;52.162;4.516;2022-10-31T08:36:35;18.20;70.70
72905;DHT22;61048;52.162;4.516;2022-10-31T08:39:03;18.20;70.60
72905;DHT22;61048;52.162;4.516;2022-10-31T08:41:30;18.20;70.60
72905;DHT22;61048;52.162;4.516;2022-10-31T08:43:57;18.30;70.40
72905;DHT22;61048;52.162;4.516;2022-10-31T08:46:24;18.30;70.50
72905;DHT22;61048;52.162;4.516;2022-10-31T08:48:51;18.20;70.50
72905;DHT22;61048;52.162;4.516;2022-10-31T08:51:17;18.20;70.40
72905;DHT22;61048;52.162;4.516;2022-10-31T08:53:44;18.20;70.40
72905;DHT22;61048;52.162;4.516;2022-10-31T08:56:12;18.20;70.40
72905;DHT22;61048;52.162;4.516;2022-10-31T08:58:39;18.20;70.40
72905;DHT22;61048;52.162;4.516;2022-10-31T09:01:06;18.20;70.30
72905;DHT22;61048;52.162;4.516;2022-10-31T09:03:33;18.20;70.30
72905;DHT22;61048;52.162;4.516;2022-10-31T09:06:01;18.20;70.20
72905;DHT22;61048;52.162;4.516;2022-10-31T09:08:31;18.20;70.20
72905;DHT22;61048;52.162;4.516;2022-10-31T09:10:58;18.20;70.10
72905;DHT22;61048;52.162;4.516;2022-10-31T09:13:27;18.20;70.10
72905;DHT22;61048;52.162;4.516;2022-10-31T09:15:55;18.20;70.20
72905;DHT22;61048;52.162;4.516;2022-10-31T09:18:22;18.20;70.10
72905;DHT22;61048;52.162;4.516;2022-10-31T09:20:50;18.20;70.10
72905;DHT22;61048;52.162;4.516;2022-10-31T09:23:18;18.20;69.90
72905;DHT22;61048;52.162;4.516;2022-10-31T09:25:46;18.30;70.00
72905;DHT22;61048;52.162;4.516;2022-10-31T09:28:14;18.30;70.10
72905;DHT22;61048;52.162;4.516;2022-10-31T09:30:45;18.30;69.90
72905;DHT22;61048;52.162;4.516;2022-10-31T09:33:13;18.30;69.90
72905;DHT22;61048;52.162;4.516;2022-10-31T09:35:41;18.30;69.80
72905;DHT22;61048;52.162;4.516;2022-10-31T09:38:09;18.30;69.80
72905;DHT22;61048;52.162;4.516;2022-10-31T09:40:38;18.30;69.90
72905;DHT22;61048;52.162;4.516;2022-10-31T09:43:13;18.40;69.90
72905;DHT22;61048;52.162;4.516;2022-10-31T09:45:49;18.40;69.80
72905;DHT22;61048;52.162;4.516;2022-10-31T09:48:47;18.40;69.90
72905;DHT22;61048;52.162;4.516;2022-10-31T09:51:18;18.40;69.90
72905;DHT22;61048;52.162;4.516;2022-10-31T09:53:49;18.40;69.80
72905;DHT22;61048;52.162;4.516;2022-10-31T09:56:19;18.40;69.70
72905;DHT22;61048;52.162;4.516;2022-10-31T09:58:48;18.40;69.80
72905;DHT22;61048;52.162;4.516;2022-10-31T10:01:34;18.40;69.70
72905;DHT22;61048;52.162;4.516;2022-10-31T10:04:20;18.40;69.80
72905;DHT22;61048;52.162;4.516;2022-10-31T10:06:52;18.40;69.60
72905;DHT22;61048;52.162;4.516;2022-10-31T10:09:21;18.40;69.60
72905;DHT22;61048;52.162;4.516;2022-10-31T10:11:58;18.40;69.70
72905;DHT22;61048;52.162;4.516;2022-10-31T10:14:40;18.40;69.50
72905;DHT22;61048;52.162;4.516;2022-10-31T10:17:22;18.40;69.70
72905;DHT22;61048;52.162;4.516;2022-10-31T10:20:10;18.40;69.70
72905;DHT22;61048;52.162;4.516;2022-10-31T10:22:46;18.40;69.70
72905;DHT22;61048;52.162;4.516;2022-10-31T10:25:19;18.40;69.50
72905;DHT22;61048;52.162;4.516;2022-10-31T10:27:58;18.40;69.50
72905;DHT22;61048;52.162;4.516;2022-10-31T10:30:33;18.40;69.50
72905;DHT22;61048;52.162;4.516;2022-10-31T10:33:05;18.40;69.50
72905;DHT22;61048;52.162;4.516;2022-10-31T10:35:38;18.40;69.40
72905;DHT22;61048;52.162;4.516;2022-10-31T10:38:13;18.40;69.60
72905;DHT22;61048;52.162;4.516;2022-10-31T10:40:41;18.40;69.50
72905;DHT22;61048;52.162;4.516;2022-10-31T10:43:20;18.40;69.40
72905;DHT22;61048;52.162;4.516;2022-10-31T10:45:51;18.40;69.40
72905;DHT22;61048;52.162;4.516;2022-10-31T10:48:49;18.40;69.40
72905;DHT22;61048;52.162;4.516;2022-10-31T10:51:21;18.40;69.10
72905;DHT22;61048;52.162;4.516;2022-10-31T10:54:03;18.40;69.40
72905;DHT22;61048;52.162;4.516;2022-10-31T10:56:49;18.40;69.30
72905;DHT22;61048;52.162;4.516;2022-10-31T10:59:20;18.40;69.20
72905;DHT22;61048;52.162;4.516;2022-10-31T11:01:48;18.40;69.40
72905;DHT22;61048;52.162;4.516;2022-10-31T11:04:27;18.40;69.40
72905;DHT22;61048;52.162;4.516;2022-10-31T11:06:59;18.40;69.40
72905;DHT22;61048;52.162;4.516;2022-10-31T11:09:26;18.40;69.50
72905;DHT22;61048;52.162;4.516;2022-10-31T11:11:54;18.30;69.40
72905;DHT22;61048;52.162;4.516;2022-10-31T11:14:22;18.40;69.30
72905;DHT22;61048;52.162;4.516;2022-10-31T11:16:51;18.40;69.30
72905;DHT22;61048;52.162;4.516;2022-10-31T11:19:23;18.40;69.40
72905;DHT22;61048;52.162;4.516;2022-10-31T11:21:50;18.40;69.40
72905;DHT22;61048;52.162;4.516;2022-10-31T11:24:19;18.40;69.40
72905;DHT22;61048;52.162;4.516;2022-10-31T11:26:48;18.40;69.40
72905;DHT22;61048;52.162;4.516;2022-10-31T11:29:17;18.40;69.50
72905;DHT22;61048;52.162;4.516;2022-10-31T11:31:47;18.50;69.30
72905;DHT22;61048;52.162;4.516;2022-10-31T11:34:28;18.50;69.30
72905;DHT22;61048;52.162;4.516;2022-10-31T11:36:58;18.50;69.30
72905;DHT22;61048;52.162;4.516;2022-10-31T11:39:27;18.50;69.20
72905;DHT22;61048;52.162;4.516;2022-10-31T11:41:54;18.50;69.10
72905;DHT22;61048;52.162;4.516;2022-10-31T11:44:24;18.50;69.20
72905;DHT22;61048;52.162;4.516;2022-10-31T11:46:54;18.50;69.10
72905;DHT22;61048;52.162;4.516;2022-10-31T11:49:29;18.50;69.20
72905;DHT22;61048;52.162;4.516;2022-10-31T11:51:58;18.50;69.00
72905;DHT22;61048;52.162;4.516;2022-10-31T11:54:28;18.50;69.10
72905;DHT22;61048;52.162;4.516;2022-10-31T11:56:56;18.50;68.90
72905;DHT22;61048;52.162;4.516;2022-10-31T11:59:26;18.50;69.00
72905;DHT22;61048;52.162;4.516;2022-10-31T12:01:55;18.40;69.00
72905;DHT22;61048;52.162;4.516;2022-10-31T12:04:40;18.50;69.30
72905;DHT22;61048;52.162;4.516;2022-10-31T12:07:08;18.50;69.20
72905;DHT22;61048;52.162;4.516;2022-10-31T12:09:36;18.50;69.30
72905;DHT22;61048;52.162;4.516;2022-10-31T12:12:25;18.50;69.10
72905;DHT22;61048;52.162;4.516;2022-10-31T12:15:07;18.50;69.20
72905;DHT22;61048;52.162;4.516;2022-10-31T12:17:41;18.50;69.20
72905;DHT22;61048;52.162;4.516;2022-10-31T12:20:20;18.50;69.30
72905;DHT22;61048;52.162;4.516;2022-10-31T12:22:58;18.50;69.00
72905;DHT22;61048;52.162;4.516;2022-10-31T12:25:33;18.50;69.10
72905;DHT22;61048;52.162;4.516;2022-10-31T12:28:44;18.50;69.10
72905;DHT22;61048;52.162;4.516;2022-10-31T12:31:28;18.50;69.30
72905;DHT22;61048;52.162;4.516;2022-10-31T12:34:02;18.50;69.10
72905;DHT22;61048;52.162;4.516;2022-10-31T12:36:45;18.50;69.30
72905;DHT22;61048;52.162;4.516;2022-10-31T12:39:25;18.50;68.90
72905;DHT22;61048;52.162;4.516;2022-10-31T12:42:00;18.50;69.00
72905;DHT22;61048;52.162;4.516;2022-10-31T12:44:55;18.50;69.10
72905;DHT22;61048;52.162;4.516;2022-10-31T12:47:43;18.60;69.10
72905;DHT22;61048;52.162;4.516;2022-10-31T12:50:32;18.60;69.00
72905;DHT22;61048;52.162;4.516;2022-10-31T12:53:11;18.60;69.10
72905;DHT22;61048;52.162;4.516;2022-10-31T12:55:53;18.60;69.00
72905;DHT22;61048;52.162;4.516;2022-10-31T12:58:26;18.60;68.90
72905;DHT22;61048;52.162;4.516;2022-10-31T13:01:01;18.60;68.90
72905;DHT22;61048;52.162;4.516;2022-10-31T13:03:32;18.60;69.00
72905;DHT22;61048;52.162;4.516;2022-10-31T13:06:05;18.60;69.00
72905;DHT22;61048;52.162;4.516;2022-10-31T13:08:38;18.60;68.90
72905;DHT22;61048;52.162;4.516;2022-10-31T13:11:10;18.60;68.90
72905;DHT22;61048;52.162;4.516;2022-10-31T13:13:41;18.60;69.00
72905;DHT22;61048;52.162;4.516;2022-10-31T13:16:13;18.60;69.10
72905;DHT22;61048;52.162;4.516;2022-10-31T13:18:44;18.60;69.10
72905;DHT22;61048;52.162;4.516;2022-10-31T13:21:17;18.60;69.00
72905;DHT22;61048;52.162;4.516;2022-10-31T13:23:49;18.60;69.00
72905;DHT22;61048;52.162;4.516;2022-10-31T13:26:21;18.60;68.90
72905;DHT22;61048;52.162;4.516;2022-10-31T13:28:54;18.60;69.10
72905;DHT22;61048;52.162;4.516;2022-10-31T13:31:24;18.60;69.10
72905;DHT22;61048;52.162;4.516;2022-10-31T13:33:53;18.60;69.10
72905;DHT22;61048;52.162;4.516;2022-10-31T13:36:26;18.60;69.20
72905;DHT22;61048;52.162;4.516;2022-10-31T13:39:03;18.60;69.10
72905;DHT22;61048;52.162;4.516;2022-10-31T13:41:42;18.60;69.20
72905;DHT22;61048;52.162;4.516;2022-10-31T13:44:21;18.60;69.10
72905;DHT22;61048;52.162;4.516;2022-10-31T13:46:50;18.60;69.10
72905;DHT22;61048;52.162;4.516;2022-10-31T13:49:25;18.60;69.20
72905;DHT22;61048;52.162;4.516;2022-10-31T13:51:52;18.60;69.20
72905;DHT22;61048;52.162;4.516;2022-10-31T13:54:23;18.50;69.20
72905;DHT22;61048;52.162;4.516;2022-10-31T13:56:51;18.60;69.20
72905;DHT22;61048;52.162;4.516;2022-10-31T13:59:21;18.50;69.30
72905;DHT22;61048;52.162;4.516;2022-10-31T14:01:51;18.50;69.30
72905;DHT22;61048;52.162;4.516;2022-10-31T14:04:20;18.50;69.20
72905;DHT22;61048;52.162;4.516;2022-10-31T14:06:55;18.50;69.30
72905;DHT22;61048;52.162;4.516;2022-10-31T14:09:29;18.50;69.30
72905;DHT22;61048;52.162;4.516;2022-10-31T14:11:59;18.50;69.30
72905;DHT22;61048;52.162;4.516;2022-10-31T14:14:34;18.50;69.30
72905;DHT22;61048;52.162;4.516;2022-10-31T14:17:02;18.50;69.30
72905;DHT22;61048;52.162;4.516;2022-10-31T14:19:29;18.50;69.40
72905;DHT22;61048;52.162;4.516;2022-10-31T14:21:56;18.50;69.40
72905;DHT22;61048;52.162;4.516;2022-10-31T14:24:37;18.50;69.40
72905;DHT22;61048;52.162;4.516;2022-10-31T14:27:43;18.50;69.40
72905;DHT22;61048;52.162;4.516;2022-10-31T14:30:16;18.50;69.40
72905;DHT22;61048;52.162;4.516;2022-10-31T14:32:43;18.50;69.50
72905;DHT22;61048;52.162;4.516;2022-10-31T14:35:15;18.50;69.50
72905;DHT22;61048;52.162;4.516;2022-10-31T14:38:01;18.50;69.40
72905;DHT22;61048;52.162;4.516;2022-10-31T14:40:39;18.50;69.40
72905;DHT22;61048;52.162;4.516;2022-10-31T14:46:00;18.50;69.50
72905;DHT22;61048;52.162;4.516;2022-10-31T14:48:43;18.50;69.60
72905;DHT22;61048;52.162;4.516;2022-10-31T14:51:17;18.40;69.60
72905;DHT22;61048;52.162;4.516;2022-10-31T14:53:47;18.40;69.60
72905;DHT22;61048;52.162;4.516;2022-10-31T14:56:20;18.40;69.60
72905;DHT22;61048;52.162;4.516;2022-10-31T14:58:48;18.50;69.60
72905;DHT22;61048;52.162;4.516;2022-10-31T15:01:23;18.50;69.60
72905;DHT22;61048;52.162;4.516;2022-10-31T15:03:50;18.40;69.60
72905;DHT22;61048;52.162;4.516;2022-10-31T15:06:20;18.40;69.60
72905;DHT22;61048;52.162;4.516;2022-10-31T15:08:49;18.40;69.70
72905;DHT22;61048;52.162;4.516;2022-10-31T15:11:17;18.40;69.70
72905;DHT22;61048;52.162;4.516;2022-10-31T15:13:46;18.40;69.70
72905;DHT22;61048;52.162;4.516;2022-10-31T15:16:16;18.40;69.70
72905;DHT22;61048;52.162;4.516;2022-10-31T15:18:53;18.40;69.70
72905;DHT22;61048;52.162;4.516;2022-10-31T15:21:23;18.40;69.70
72905;DHT22;61048;52.162;4.516;2022-10-31T15:23:52;18.40;69.70
72905;DHT22;61048;52.162;4.516;2022-10-31T15:26:21;18.40;69.80
72905;DHT22;61048;52.162;4.516;2022-10-31T15:28:58;18.40;69.80
72905;DHT22;61048;52.162;4.516;2022-10-31T15:31:26;18.40;69.70
72905;DHT22;61048;52.162;4.516;2022-10-31T15:33:55;18.40;69.80
72905;DHT22;61048;52.162;4.516;2022-10-31T15:36:25;18.30;69.80
72905;DHT22;61048;52.162;4.516;2022-10-31T15:38:52;18.30;69.80
72905;DHT22;61048;52.162;4.516;2022-10-31T15:41:28;18.30;69.80
72905;DHT22;61048;52.162;4.516;2022-10-31T15:44:00;18.30;69.90
72905;DHT22;61048;52.162;4.516;2022-10-31T15:46:28;18.30;69.90
72905;DHT22;61048;52.162;4.516;2022-10-31T15:48:57;18.30;69.90
72905;DHT22;61048;52.162;4.516;2022-10-31T15:51:32;18.30;70.10
72905;DHT22;61048;52.162;4.516;2022-10-31T15:54:00;18.20;70.10
72905;DHT22;61048;52.162;4.516;2022-10-31T15:56:29;18.20;70.10